Time;durP1;ratioP1;P1;durP2;ratioP2;P2;SDS_P1;SDS_P2;PMS_P1;PMS_P2;Temp;Humidity;BMP_temperature;BMP_pressure;BME280_temperature;BME280_humidity;BME280_pressure;Samples;Min_cycle;Max_cycle;Signal;HPM_P1;HPM_P2
2024/01/02 00:01:22;;;;;;;13.07;3.42;;;;;;;5.02;100.00;100235.06;4969420;28;20249;-44
2024/01/02 00:03:48;;;;;;;23.05;3.60;;;;;;;5.00;100.00;100228.91;4962060;28;20230;-44
2024/01/02 00:06:14;;;;;;;17.63;3.88;;;;;;;4.93;100.00;100226.41;4967223;28;20186;-45
2024/01/02 00:08:40;;;;;;;14.75;3.75;;;;;;;4.92;100.00;100245.91;4967081;28;20174;-45
2024/01/02 00:11:06;;;;;;;11.25;3.13;;;;;;;4.85;100.00;100228.38;4962862;28;20225;-43
2024/01/02 00:13:31;;;;;;;17.30;3.67;;;;;;;4.86;100.00;100222.16;4966527;28;20232;-45
2024/01/02 00:15:57;;;;;;;13.63;3.00;;;;;;;4.92;100.00;100219.38;4960336;28;20496;-46
2024/01/02 00:18:22;;;;;;;13.48;3.50;;;;;;;4.88;100.00;100233.63;4966812;28;20212;-44
2024/01/02 00:20:48;;;;;;;17.55;3.05;;;;;;;4.79;100.00;100220.59;4951718;28;20208;-46
2024/01/02 00:23:13;;;;;;;11.90;2.95;;;;;;;4.77;100.00;100219.75;4964974;28;20210;-44
2024/01/02 00:25:39;;;;;;;9.32;2.65;;;;;;;4.79;100.00;100209.97;4969833;28;20189;-45
2024/01/02 00:28:04;;;;;;;12.20;3.28;;;;;;;4.75;100.00;100210.94;4968107;28;20237;-45
2024/01/02 00:30:32;;;;;;;13.40;3.42;;;;;;;4.66;100.00;100208.53;4963478;28;20637;-43
2024/01/02 00:32:57;;;;;;;11.23;2.90;;;;;;;4.59;100.00;100202.50;4965022;28;20731;-43
2024/01/02 00:35:23;;;;;;;10.98;2.78;;;;;;;4.50;100.00;100208.00;4943571;28;20285;-43
2024/01/02 00:37:48;;;;;;;14.50;4.00;;;;;;;4.45;100.00;100208.09;4946606;28;20186;-44
2024/01/02 00:40:14;;;;;;;18.83;4.28;;;;;;;4.41;100.00;100200.25;4947407;28;20185;-44
2024/01/02 00:42:39;;;;;;;9.63;3.00;;;;;;;4.41;100.00;100194.94;4951614;28;20623;-44
2024/01/02 00:45:05;;;;;;;19.25;3.63;;;;;;;4.36;100.00;100208.31;4961498;28;20174;-44
2024/01/02 00:47:31;;;;;;;9.68;3.00;;;;;;;4.38;100.00;100193.25;4952385;28;20541;-44
2024/01/02 00:49:56;;;;;;;14.40;3.47;;;;;;;4.27;100.00;100193.50;4951206;28;20177;-46
2024/01/02 00:52:22;;;;;;;14.43;3.35;;;;;;;4.25;100.00;100203.25;4947302;28;20679;-43
2024/01/02 00:54:49;;;;;;;13.90;3.33;;;;;;;4.26;100.00;100194.41;4964792;28;20214;-44
2024/01/02 00:57:15;;;;;;;14.43;2.95;;;;;;;4.22;100.00;100189.19;4967598;28;20213;-43
2024/01/02 00:59:40;;;;;;;20.08;3.17;;;;;;;4.21;100.00;100206.88;4965214;28;20230;-44
2024/01/02 01:02:06;;;;;;;12.20;3.25;;;;;;;4.15;100.00;100193.75;4966356;28;20273;-45
2024/01/02 01:04:31;;;;;;;10.80;2.78;;;;;;;4.07;100.00;100204.53;4967070;28;20210;-44
2024/01/02 01:06:57;;;;;;;16.40;3.22;;;;;;;4.09;100.00;100196.56;4950755;28;20950;-44
2024/01/02 01:09:23;;;;;;;10.95;3.83;;;;;;;4.04;100.00;100191.34;4945901;28;20223;-43
2024/01/02 01:11:48;;;;;;;18.85;4.07;;;;;;;3.97;100.00;100188.88;4951464;28;20197;-44
2024/01/02 01:14:14;;;;;;;10.77;2.75;;;;;;;3.92;100.00;100181.03;4965087;28;20202;-44
2024/01/02 01:16:39;;;;;;;18.60;3.80;;;;;;;3.88;100.00;100179.34;4964929;28;20182;-43
2024/01/02 01:19:05;;;;;;;15.60;3.40;;;;;;;3.87;100.00;100175.81;4967309;28;20225;-44
2024/01/02 01:21:31;;;;;;;12.85;3.78;;;;;;;3.87;100.00;100177.56;4961198;28;20201;-44
2024/01/02 01:23:57;;;;;;;18.83;3.97;;;;;;;3.80;100.00;100170.66;4947975;28;20221;-46
2024/01/02 01:26:22;;;;;;;16.98;3.65;;;;;;;3.75;100.00;100180.50;4951629;28;20186;-44
2024/01/02 01:28:48;;;;;;;12.52;3.70;;;;;;;3.71;100.00;100177.03;4947897;28;20197;-45
2024/01/02 01:31:13;;;;;;;15.48;3.85;;;;;;;3.68;100.00;100172.66;4939439;28;20691;-45
2024/01/02 01:33:39;;;;;;;13.75;3.40;;;;;;;3.64;100.00;100181.59;4965619;28;20195;-45
2024/01/02 01:36:05;;;;;;;12.40;3.42;;;;;;;3.66;100.00;100169.19;4950044;28;20218;-45
2024/01/02 01:38:30;;;;;;;17.40;3.92;;;;;;;3.63;100.00;100171.91;4964932;28;20216;-45
2024/01/02 01:40:56;;;;;;;17.38;4.03;;;;;;;3.55;100.00;100170.31;4948977;28;20186;-45
2024/01/02 01:43:22;;;;;;;14.75;3.97;;;;;;;3.52;100.00;100165.97;4962908;28;20218;-44
2024/01/02 01:45:48;;;;;;;15.95;3.97;;;;;;;3.57;100.00;100158.78;4967622;28;20229;-44
2024/01/02 01:48:14;;;;;;;17.92;4.47;;;;;;;3.49;100.00;100163.34;4949580;28;20193;-44
2024/01/02 01:50:39;;;;;;;16.55;4.13;;;;;;;3.44;100.00;100163.44;4963256;28;20178;-44
2024/01/02 01:53:07;;;;;;;17.30;4.43;;;;;;;3.38;100.00;100168.84;4962915;28;20225;-46
2024/01/02 01:55:33;;;;;;;13.63;3.92;;;;;;;3.39;100.00;100161.78;4965126;28;20724;-46
2024/01/02 01:57:59;;;;;;;16.17;4.00;;;;;;;3.37;100.00;100163.56;4949644;28;20181;-45
2024/01/02 02:00:25;;;;;;;16.13;4.38;;;;;;;3.37;100.00;100166.22;4948658;28;20234;-44
2024/01/02 02:02:51;;;;;;;14.90;3.92;;;;;;;3.33;100.00;100169.88;4944096;28;20205;-44
2024/01/02 02:05:17;;;;;;;19.13;4.57;;;;;;;3.25;100.00;100168.22;4954165;28;20221;-45
2024/01/02 02:07:43;;;;;;;24.85;5.43;;;;;;;3.23;100.00;100172.66;4949626;28;20182;-44
2024/01/02 02:10:09;;;;;;;14.52;4.88;;;;;;;3.26;100.00;100154.09;4949873;28;20621;-43
2024/01/02 02:12:35;;;;;;;14.73;4.53;;;;;;;3.20;100.00;100159.50;4950841;28;20205;-45
2024/01/02 02:15:04;;;;;;;20.10;4.90;;;;;;;3.15;100.00;100150.78;4965976;28;20192;-44
2024/01/02 02:17:30;;;;;;;10.43;4.00;;;;;;;3.20;100.00;100154.19;4964496;28;20183;-43
2024/01/02 02:19:56;;;;;;;16.25;5.00;;;;;;;3.15;100.00;100150.78;4950124;28;20324;-44
2024/01/02 02:22:37;;;;;;;16.58;5.70;;;;;;;3.22;100.00;100144.47;4945718;28;20204;-44
2024/01/02 02:25:07;;;;;;;16.83;5.00;;;;;;;3.22;100.00;100141.81;4938340;28;20186;-47
2024/01/02 02:27:33;;;;;;;20.73;5.20;;;;;;;3.28;100.00;100148.78;4962679;28;20648;-43
2024/01/02 02:29:59;;;;;;;23.63;6.63;;;;;;;3.26;100.00;100146.16;4947757;28;20190;-46
2024/01/02 02:32:25;;;;;;;17.95;5.80;;;;;;;3.30;100.00;100147.84;4946933;28;20210;-44
2024/01/02 02:34:50;;;;;;;28.60;7.75;;;;;;;3.27;100.00;100144.38;4948037;28;20292;-43
2024/01/02 02:37:16;;;;;;;23.92;6.97;;;;;;;3.26;100.00;100137.34;4946497;28;20202;-43
2024/01/02 02:39:42;;;;;;;24.00;7.25;;;;;;;3.29;100.00;100142.56;4961683;28;20213;-46
2024/01/02 02:42:07;;;;;;;27.45;6.90;;;;;;;3.33;100.00;100133.66;4962734;28;20193;-43
2024/01/02 02:44:33;;;;;;;22.95;7.38;;;;;;;3.36;100.00;100132.72;4949109;28;20255;-45
2024/01/02 02:46:59;;;;;;;31.30;9.10;;;;;;;3.39;100.00;100122.97;4963424;28;20202;-44
2024/01/02 02:49:25;;;;;;;25.92;8.43;;;;;;;3.40;100.00;100127.34;4947286;28;20182;-44
2024/01/02 02:51:51;;;;;;;25.30;8.73;;;;;;;3.43;100.00;100134.34;4948113;28;20613;-45
2024/01/02 02:54:16;;;;;;;30.52;9.40;;;;;;;3.42;100.00;100127.31;4959460;28;20224;-45
2024/01/02 02:56:43;;;;;;;32.67;9.35;;;;;;;3.44;100.00;100109.63;4949131;28;20520;-44
2024/01/02 02:59:12;;;;;;;21.10;9.23;;;;;;;3.43;100.00;100107.84;4946333;28;20206;-44
2024/01/02 03:01:38;;;;;;;26.60;8.95;;;;;;;3.44;100.00;100097.25;4963307;28;20177;-45
2024/01/02 03:04:05;;;;;;;22.70;8.52;;;;;;;3.45;100.00;100108.69;4961083;28;20754;-45
2024/01/02 03:06:30;;;;;;;31.10;9.95;;;;;;;3.46;100.00;100091.94;4967871;28;20190;-44
2024/01/02 03:08:56;;;;;;;24.40;8.77;;;;;;;3.45;100.00;100090.16;4967223;28;20182;-42
2024/01/02 03:11:21;;;;;;;25.60;9.80;;;;;;;3.45;100.00;100101.63;4962664;28;20183;-44
2024/01/02 03:13:50;;;;;;;30.25;9.80;;;;;;;3.45;100.00;100087.50;4966468;28;20522;-45
2024/01/02 03:16:15;;;;;;;31.13;9.98;;;;;;;3.54;100.00;100084.66;4969332;28;20189;-44
2024/01/02 03:18:41;;;;;;;28.65;9.07;;;;;;;3.51;100.00;100076.81;4932373;28;20260;-44
2024/01/02 03:21:13;;;;;;;28.85;9.57;;;;;;;3.50;100.00;100078.59;4968698;28;20661;-45
2024/01/02 03:23:38;;;;;;;21.42;9.60;;;;;;;3.51;100.00;100087.38;4958577;28;20567;-44
2024/01/02 03:26:05;;;;;;;27.70;9.70;;;;;;;3.48;100.00;100080.38;4964565;28;20256;-43
2024/01/02 03:28:31;;;;;;;37.97;11.10;;;;;;;3.44;100.00;100072.53;4966266;28;20182;-45
2024/01/02 03:30:57;;;;;;;22.55;10.35;;;;;;;3.41;100.00;100064.66;4965244;28;20269;-44
2024/01/02 03:33:23;;;;;;;23.67;9.70;;;;;;;3.44;100.00;100061.97;4962169;28;20202;-43
2024/01/02 03:35:48;;;;;;;27.38;10.05;;;;;;;3.38;100.00;100051.50;4969055;28;20193;-43
2024/01/02 03:38:15;;;;;;;27.80;9.68;;;;;;;3.35;100.00;100051.56;4968526;28;20206;-44
2024/01/02 03:40:41;;;;;;;22.90;9.13;;;;;;;3.29;100.00;100037.53;4964188;28;20183;-43
2024/01/02 03:43:06;;;;;;;29.25;9.68;;;;;;;3.29;100.00;100040.19;4963662;28;20220;-43
2024/01/02 03:45:32;;;;;;;16.95;8.20;;;;;;;3.20;100.00;100029.78;4963178;28;20200;-45
2024/01/02 03:47:58;;;;;;;27.88;10.05;;;;;;;3.18;100.00;100023.66;4966519;28;20249;-44
2024/01/02 03:50:24;;;;;;;26.33;8.93;;;;;;;3.18;100.00;100005.13;4965266;28;20197;-43
2024/01/02 03:52:50;;;;;;;23.13;7.45;;;;;;;3.11;100.00;100014.13;4966565;28;20210;-44
2024/01/02 03:55:15;;;;;;;27.48;7.85;;;;;;;3.09;100.00;100008.84;4966769;28;20536;-43
2024/01/02 03:57:40;;;;;;;24.15;8.27;;;;;;;3.07;100.00;100012.44;4963687;28;20186;-45
2024/01/02 04:00:08;;;;;;;30.05;7.88;;;;;;;3.05;100.00;99996.56;4966397;28;20658;-46
2024/01/02 04:02:34;;;;;;;24.27;7.00;;;;;;;3.03;100.00;100003.66;4945902;28;20285;-44
2024/01/02 04:04:59;;;;;;;23.20;7.55;;;;;;;3.00;100.00;99998.47;4946917;28;20268;-43
2024/01/02 04:07:25;;;;;;;32.00;8.55;;;;;;;2.99;100.00;99993.19;4968760;28;20189;-45
2024/01/02 04:09:51;;;;;;;28.13;7.97;;;;;;;2.98;100.00;99999.41;4962036;28;20189;-43
2024/01/02 04:12:17;;;;;;;21.35;7.63;;;;;;;2.96;100.00;100001.19;4964395;28;20202;-44
2024/01/02 04:14:42;;;;;;;20.95;7.30;;;;;;;2.91;100.00;99997.75;4969647;28;20571;-44
2024/01/02 04:17:08;;;;;;;20.38;7.18;;;;;;;2.91;100.00;99992.47;4966651;28;20202;-44
2024/01/02 04:19:33;;;;;;;25.40;8.25;;;;;;;2.83;100.00;99995.28;4960441;28;20268;-42
2024/01/02 04:21:59;;;;;;;26.60;7.80;;;;;;;2.82;100.00;99980.28;4962145;28;20200;-45
2024/01/02 04:24:25;;;;;;;25.05;8.07;;;;;;;2.80;100.00;99980.34;4961203;28;20230;-46
2024/01/02 04:26:52;;;;;;;29.77;9.00;;;;;;;2.78;100.00;99989.22;4968273;28;20190;-44
2024/01/02 04:29:17;;;;;;;29.13;9.07;;;;;;;2.78;100.00;99978.63;4964510;28;20225;-45
2024/01/02 04:31:43;;;;;;;26.80;8.93;;;;;;;2.71;100.00;99975.22;4965746;28;20593;-43
2024/01/02 04:34:08;;;;;;;22.70;9.10;;;;;;;2.71;100.00;99975.22;4964304;28;20216;-44
2024/01/02 04:36:34;;;;;;;18.17;8.07;;;;;;;2.70;100.00;99962.91;4965600;28;20196;-45
2024/01/02 04:38:59;;;;;;;27.70;8.18;;;;;;;2.71;100.00;99964.63;4964273;28;20293;-44
2024/01/02 04:41:25;;;;;;;25.25;8.25;;;;;;;2.69;100.00;99961.19;4961652;28;20197;-43
2024/01/02 04:43:50;;;;;;;22.15;8.20;;;;;;;2.75;100.00;99957.53;4948554;28;20212;-44
2024/01/02 04:46:16;;;;;;;24.98;8.07;;;;;;;2.74;100.00;99947.84;4965083;28;20182;-45
2024/01/02 04:48:41;;;;;;;33.85;8.10;;;;;;;2.74;100.00;99954.00;4964771;28;20218;-44
2024/01/02 04:51:07;;;;;;;20.13;7.43;;;;;;;2.72;100.00;99952.31;4969984;28;20218;-45
2024/01/02 04:53:32;;;;;;;20.15;6.95;;;;;;;2.75;100.00;99942.50;4963537;28;20277;-45
2024/01/02 04:55:57;;;;;;;23.80;7.75;;;;;;;2.76;100.00;99938.13;4966837;28;20198;-45
2024/01/02 04:58:23;;;;;;;16.02;6.65;;;;;;;2.78;100.00;99933.66;4950844;28;20214;-44
2024/01/02 05:00:48;;;;;;;19.88;6.63;;;;;;;2.74;100.00;99921.41;4964732;28;20203;-45
2024/01/02 05:03:14;;;;;;;22.55;7.28;;;;;;;2.74;100.00;99914.34;4964294;28;20738;-44
2024/01/02 05:05:39;;;;;;;22.35;6.72;;;;;;;2.75;100.00;99912.56;4967274;28;20322;-45
2024/01/02 05:08:05;;;;;;;28.17;8.07;;;;;;;2.75;100.00;99909.91;4966294;28;20245;-45
2024/01/02 05:10:31;;;;;;;22.42;7.70;;;;;;;2.73;100.00;99907.28;4963895;28;20201;-45
2024/01/02 05:12:57;;;;;;;23.17;6.97;;;;;;;2.72;100.00;99900.28;4969794;23;21189;-38
2024/01/02 05:15:22;;;;;;;27.13;6.80;;;;;;;2.71;100.00;99900.28;4966791;28;20185;-41
2024/01/02 05:17:47;;;;;;;26.17;7.85;;;;;;;2.71;100.00;99887.94;4964520;28;20178;-38
2024/01/02 05:20:13;;;;;;;26.83;7.45;;;;;;;2.74;100.00;99885.25;4964735;28;20296;-39
2024/01/02 05:22:39;;;;;;;21.58;7.95;;;;;;;2.74;100.00;99887.88;4965132;28;20682;-40
2024/01/02 05:25:06;;;;;;;28.63;7.68;;;;;;;2.71;100.00;99866.78;4961064;28;20320;-40
2024/01/02 05:27:32;;;;;;;18.45;7.45;;;;;;;2.79;100.00;99869.28;4958890;28;20315;-39
2024/01/02 05:29:57;;;;;;;27.13;7.68;;;;;;;2.72;100.00;99865.88;4962883;28;20178;-41
2024/01/02 05:32:23;;;;;;;23.58;5.70;;;;;;;2.74;100.00;99863.22;4967146;28;20193;-40
2024/01/02 05:34:48;;;;;;;26.95;7.10;;;;;;;2.71;100.00;99861.50;4963326;28;20217;-40
2024/01/02 05:37:15;;;;;;;23.55;7.78;;;;;;;2.71;100.00;99858.84;4962661;28;20193;-41
2024/01/02 05:39:41;;;;;;;27.55;6.55;;;;;;;2.72;100.00;99860.59;4962260;28;20589;-39
2024/01/02 05:42:07;;;;;;;21.00;6.63;;;;;;;2.69;100.00;99847.47;4964797;28;20177;-40
2024/01/02 05:44:33;;;;;;;23.40;6.82;;;;;;;2.72;100.00;99844.72;4966091;28;20202;-41
2024/01/02 05:46:58;;;;;;;18.08;6.68;;;;;;;2.69;100.00;99844.81;4960527;28;20182;-40
2024/01/02 05:49:24;;;;;;;28.40;5.97;;;;;;;2.67;100.00;99842.19;4961578;28;20269;-41
2024/01/02 05:51:49;;;;;;;19.02;6.18;;;;;;;2.68;100.00;99824.53;4962398;28;20230;-40
2024/01/02 05:54:14;;;;;;;23.85;5.80;;;;;;;2.64;100.00;99836.94;4949867;28;20241;-40
2024/01/02 05:56:40;;;;;;;22.40;6.95;;;;;;;2.67;100.00;99821.03;4963812;28;20194;-40
2024/01/02 05:59:05;;;;;;;26.15;6.18;;;;;;;2.67;100.00;99830.75;4961083;28;20209;-38
2024/01/02 06:01:31;;;;;;;23.75;6.07;;;;;;;2.64;100.00;99821.09;4961252;28;20186;-43
2024/01/02 06:03:56;;;;;;;23.80;6.45;;;;;;;2.63;100.00;99813.22;4964968;28;20217;-40
2024/01/02 06:06:22;;;;;;;22.70;6.32;;;;;;;2.60;100.00;99810.63;4958876;28;20190;-39
2024/01/02 06:08:47;;;;;;;28.08;6.20;;;;;;;2.59;100.00;99811.53;4955587;28;20234;-38
2024/01/02 06:11:13;;;;;;;18.23;5.65;;;;;;;2.66;100.00;99807.84;4964878;28;20252;-41
2024/01/02 06:13:38;;;;;;;21.98;6.10;;;;;;;2.65;100.00;99808.75;4960420;28;20218;-40
2024/01/02 06:16:04;;;;;;;20.75;5.75;;;;;;;2.64;100.00;99810.50;4963607;28;20197;-40
2024/01/02 06:18:29;;;;;;;23.20;5.70;;;;;;;2.66;100.00;99810.47;4960141;28;20206;-40
2024/01/02 06:20:55;;;;;;;21.83;5.88;;;;;;;2.67;100.00;99810.47;4963562;28;20244;-40
2024/01/02 06:23:21;;;;;;;25.65;6.53;;;;;;;2.70;100.00;99809.50;4964153;28;20252;-39
2024/01/02 06:25:46;;;;;;;19.45;6.30;;;;;;;2.72;100.00;99812.13;4960103;28;20194;-39
2024/01/02 06:28:12;;;;;;;25.98;5.25;;;;;;;2.74;100.00;99803.25;4962655;28;20194;-40
2024/01/02 06:30:37;;;;;;;20.15;5.85;;;;;;;2.70;100.00;99809.50;4962804;28;20224;-41
2024/01/02 06:33:03;;;;;;;20.55;5.57;;;;;;;2.70;100.00;99809.50;4964106;28;20201;-39
2024/01/02 06:35:28;;;;;;;22.15;6.13;;;;;;;2.70;100.00;99795.44;4948567;28;20190;-40
2024/01/02 06:37:54;;;;;;;13.93;5.25;;;;;;;2.73;100.00;99779.47;4961791;28;20190;-40
2024/01/02 06:40:19;;;;;;;15.93;5.85;;;;;;;2.70;100.00;99783.06;4959832;28;20742;-40
2024/01/02 06:42:45;;;;;;;14.02;5.75;;;;;;;2.70;100.00;99780.41;4969886;28;20268;-41
2024/01/02 06:45:10;;;;;;;20.02;5.53;;;;;;;2.72;100.00;99781.25;4967044;28;20599;-39
2024/01/02 06:47:37;;;;;;;18.75;5.32;;;;;;;2.70;100.00;99772.50;4964904;28;20198;-39
2024/01/02 06:50:02;;;;;;;22.63;5.18;;;;;;;2.71;100.00;99755.69;4964951;28;20273;-43
2024/01/02 06:52:28;;;;;;;20.73;5.40;;;;;;;2.73;100.00;99763.59;4969298;28;20267;-40
2024/01/02 06:54:53;;;;;;;18.48;5.60;;;;;;;2.72;100.00;99756.59;4968288;28;20175;-40
2024/01/02 06:57:19;;;;;;;16.08;5.20;;;;;;;2.79;100.00;99756.41;4965030;28;20198;-44
2024/01/02 06:59:45;;;;;;;14.20;4.45;;;;;;;2.82;100.00;99761.63;4963454;28;20323;-45
2024/01/02 07:02:10;;;;;;;17.13;5.15;;;;;;;2.85;100.00;99760.69;4970166;28;20538;-43
2024/01/02 07:04:39;;;;;;;18.13;4.47;;;;;;;2.89;100.00;99754.41;4967188;28;20621;-42
2024/01/02 07:07:04;;;;;;;18.45;4.57;;;;;;;2.90;100.00;99750.84;4965532;28;20200;-42
2024/01/02 07:09:30;;;;;;;14.40;4.55;;;;;;;2.93;100.00;99747.25;4948235;28;20178;-39
2024/01/02 07:11:55;;;;;;;15.35;4.72;;;;;;;2.94;100.00;99743.72;4955352;28;20195;-40
2024/01/02 07:14:21;;;;;;;26.67;4.93;;;;;;;2.94;100.00;99738.44;4964629;28;20587;-39
2024/01/02 07:16:46;;;;;;;16.20;4.40;;;;;;;2.93;100.00;99734.91;4964033;28;20193;-41
2024/01/02 07:19:13;;;;;;;16.48;4.32;;;;;;;2.95;100.00;99740.16;4964885;28;20256;-39
2024/01/02 07:21:38;;;;;;;19.45;4.50;;;;;;;2.95;100.00;99734.84;4964989;28;20189;-42
2024/01/02 07:24:04;;;;;;;11.82;3.55;;;;;;;2.96;100.00;99731.31;4964466;28;20206;-41
2024/01/02 07:26:29;;;;;;;17.40;4.30;;;;;;;2.95;100.00;99725.16;4966703;28;20225;-43
2024/01/02 07:28:55;;;;;;;12.32;3.35;;;;;;;2.98;100.00;99729.50;4968503;28;20225;-43
2024/01/02 07:31:21;;;;;;;12.93;3.13;;;;;;;2.99;100.00;99728.59;4968251;28;20563;-38
2024/01/02 07:33:46;;;;;;;13.75;4.07;;;;;;;3.04;100.00;99721.41;4968707;28;20206;-43
2024/01/02 07:36:12;;;;;;;15.35;3.72;;;;;;;3.03;100.00;99719.66;4962217;28;21662;-44
2024/01/02 07:38:38;;;;;;;16.58;3.80;;;;;;;3.03;100.00;99701.16;4961768;28;20353;-42
2024/01/02 07:41:03;;;;;;;14.82;3.75;;;;;;;3.06;100.00;99709.00;4964940;28;20186;-42
2024/01/02 07:43:30;;;;;;;18.65;4.30;;;;;;;3.12;100.00;99698.25;4953821;28;20530;-39
2024/01/02 07:45:57;;;;;;;18.00;4.00;;;;;;;3.13;100.00;99700.00;4966908;28;20205;-42
2024/01/02 07:48:22;;;;;;;14.27;3.88;;;;;;;3.10;100.00;99689.50;4966370;28;20233;-39
2024/01/02 07:50:48;;;;;;;13.85;3.65;;;;;;;3.15;100.00;99689.38;4955427;28;20607;-41
2024/01/02 07:53:19;;;;;;;10.93;3.28;;;;;;;3.12;100.00;99692.09;4959219;28;20317;-40
2024/01/02 07:55:47;;;;;;;14.73;3.80;;;;;;;3.11;100.00;99688.59;4961023;28;20193;-43
2024/01/02 07:58:12;;;;;;;13.00;4.10;;;;;;;3.15;100.00;99684.97;4958126;28;20195;-40
2024/01/02 08:00:38;;;;;;;15.77;3.97;;;;;;;3.14;100.00;99675.28;4961180;28;20209;-42
2024/01/02 08:03:03;;;;;;;13.32;4.20;;;;;;;3.14;100.00;99679.69;4967377;28;20207;-41
2024/01/02 08:05:29;;;;;;;16.52;3.80;;;;;;;3.15;100.00;99674.38;4963039;28;20228;-43
2024/01/02 08:07:54;;;;;;;15.30;3.53;;;;;;;3.13;100.00;99676.19;4960833;28;20190;-42
2024/01/02 08:10:20;;;;;;;14.30;3.83;;;;;;;3.15;100.00;99663.78;4956513;28;20198;-42
2024/01/02 08:12:45;;;;;;;9.85;2.60;;;;;;;3.21;100.00;99654.81;4950074;28;20189;-43
2024/01/02 08:15:12;;;;;;;11.73;3.42;;;;;;;3.24;100.00;99654.75;4960858;28;20269;-39
2024/01/02 08:17:38;;;;;;;19.40;3.97;;;;;;;3.21;100.00;99655.66;4958600;28;20614;-40
2024/01/02 08:20:04;;;;;;;10.52;3.60;;;;;;;3.23;100.00;99655.63;4957723;28;20228;-41
2024/01/02 08:22:29;;;;;;;11.88;2.85;;;;;;;3.23;100.00;99645.91;4965266;28;20190;-41
2024/01/02 08:24:55;;;;;;;12.50;3.13;;;;;;;3.27;100.00;99634.31;4958886;28;20853;-40
2024/01/02 08:27:24;;;;;;;11.70;2.92;;;;;;;3.29;100.00;99634.28;4958963;28;20194;-38
2024/01/02 08:29:49;;;;;;;12.38;3.58;;;;;;;3.30;100.00;99623.66;4960020;28;20277;-39
2024/01/02 08:32:15;;;;;;;17.63;3.15;;;;;;;3.36;100.00;99629.69;4956343;28;20239;-38
2024/01/02 08:34:40;;;;;;;13.82;2.95;;;;;;;3.36;100.00;99622.63;4961151;28;20681;-40
2024/01/02 08:37:05;;;;;;;13.35;3.40;;;;;;;3.38;100.00;99625.22;4957205;28;20281;-40
2024/01/02 08:39:31;;;;;;;9.60;2.58;;;;;;;3.40;100.00;99615.47;4962343;28;20752;-40
2024/01/02 08:41:56;;;;;;;13.98;2.95;;;;;;;3.41;100.00;99614.53;4963797;28;20205;-42
2024/01/02 08:44:22;;;;;;;9.13;2.35;;;;;;;3.41;100.00;99618.06;4949862;28;20221;-41
2024/01/02 08:46:47;;;;;;;18.33;3.20;;;;;;;3.42;100.00;99608.34;4960933;28;20633;-42
2024/01/02 08:49:14;;;;;;;13.73;3.13;;;;;;;3.43;100.00;99610.97;4959082;28;20224;-40
2024/01/02 08:51:39;;;;;;;18.77;3.17;;;;;;;3.43;100.00;99612.72;4960987;28;20199;-42
2024/01/02 08:54:04;;;;;;;12.60;3.78;;;;;;;3.42;100.00;99608.34;4964210;28;20208;-43
2024/01/02 08:56:30;;;;;;;14.73;2.53;;;;;;;3.43;100.00;99604.78;4958806;28;20198;-38
2024/01/02 08:58:56;;;;;;;14.88;3.08;;;;;;;3.44;100.00;99615.31;4964253;28;20603;-41
2024/01/02 09:01:21;;;;;;;12.85;2.83;;;;;;;3.47;100.00;99603.78;4961482;28;20260;-39
2024/01/02 09:03:47;;;;;;;16.98;2.75;;;;;;;3.42;100.00;99614.50;4960349;28;20492;-39
2024/01/02 09:06:17;;;;;;;12.43;3.00;;;;;;;3.44;100.00;99598.59;4960274;28;20190;-39
2024/01/02 09:08:43;;;;;;;12.93;2.38;;;;;;;3.43;100.00;99596.81;4951127;28;20187;-38
2024/01/02 09:11:12;;;;;;;20.17;3.53;;;;;;;3.43;100.00;99594.19;4946199;28;20212;-40
2024/01/02 09:13:38;;;;;;;12.10;2.80;;;;;;;3.40;100.00;99597.78;4963082;28;20359;-42
2024/01/02 09:16:04;;;;;;;15.95;2.80;;;;;;;3.41;100.00;99577.47;4962680;28;20242;-40
2024/01/02 09:18:30;;;;;;;15.07;3.13;;;;;;;3.41;100.00;99586.31;4959346;28;20334;-41
2024/01/02 09:20:55;;;;;;;13.10;2.45;;;;;;;3.41;100.00;99582.75;4964710;28;20344;-42
2024/01/02 09:23:21;;;;;;;7.80;2.28;;;;;;;3.43;100.00;99583.59;4963387;28;20224;-40
2024/01/02 09:25:49;;;;;;;11.18;2.35;;;;;;;3.45;100.00;99587.91;4960491;28;20371;-39
2024/01/02 09:28:15;;;;;;;8.93;2.65;;;;;;;3.47;100.00;99593.19;4960843;28;20178;-40
2024/01/02 09:30:41;;;;;;;13.45;2.83;;;;;;;3.52;100.00;99578.06;4961231;28;20193;-38
2024/01/02 09:33:09;;;;;;;10.15;2.75;;;;;;;3.49;100.00;99555.16;4963152;28;20812;-39
2024/01/02 09:35:34;;;;;;;11.98;2.97;;;;;;;3.52;100.00;99556.88;4959099;28;20190;-40
2024/01/02 09:38:00;;;;;;;10.90;2.53;;;;;;;3.54;100.00;99548.84;4960393;28;20196;-41
2024/01/02 09:40:43;;;;;;;8.52;2.33;;;;;;;3.56;100.00;99544.38;4962361;28;20193;-38
2024/01/02 09:43:26;;;;;;;8.55;2.25;;;;;;;3.54;100.00;99540.91;4957718;28;20217;-40
2024/01/02 09:45:58;;;;;;;16.77;2.70;;;;;;;3.54;100.00;99536.47;4963761;28;20194;-40
2024/01/02 09:48:41;;;;;;;4.85;1.63;;;;;;;3.60;100.00;99530.13;4957941;28;20214;-43
2024/01/02 09:51:31;;;;;;;7.78;1.75;;;;;;;3.62;100.00;99534.47;4961534;28;20193;-38
2024/01/02 09:54:18;;;;;;;8.43;2.63;;;;;;;3.59;100.00;99537.22;4962599;28;20232;-39
2024/01/02 09:57:22;;;;;;;13.32;2.70;;;;;;;3.64;100.00;99524.69;4962262;28;20209;-41
2024/01/02 10:00:05;;;;;;;10.10;2.25;;;;;;;3.61;100.00;99519.50;4961397;28;20344;-40
2024/01/02 10:02:43;;;;;;;9.65;2.40;;;;;;;3.65;100.00;99523.78;4962805;28;20177;-41
2024/01/02 10:05:23;;;;;;;11.93;2.25;;;;;;;3.64;100.00;99516.75;4961186;28;20186;-43
2024/01/02 10:08:05;;;;;;;12.27;2.20;;;;;;;3.64;100.00;99503.50;4958252;28;20186;-41
2024/01/02 10:10:36;;;;;;;7.30;2.20;;;;;;;3.62;100.00;99513.28;4963946;28;20237;-41
2024/01/02 10:13:19;;;;;;;13.93;2.40;;;;;;;3.63;100.00;99515.03;4960336;28;20237;-41
2024/01/02 10:15:54;;;;;;;10.02;2.20;;;;;;;3.62;100.00;99517.72;4963071;28;20185;-40
2024/01/02 10:18:42;;;;;;;12.38;2.72;;;;;;;3.64;100.00;99510.59;4961267;28;20189;-39
2024/01/02 10:21:23;;;;;;;11.18;2.78;;;;;;;3.62;100.00;99493.88;4952348;28;20943;-40
2024/01/02 10:24:15;;;;;;;6.00;2.30;;;;;;;3.69;100.00;99480.38;4961954;28;20356;-41
2024/01/02 10:26:56;;;;;;;7.90;2.42;;;;;;;3.64;100.00;99482.31;4921818;28;20673;-40
2024/01/02 10:29:43;;;;;;;6.88;2.30;;;;;;;3.64;100.00;99498.22;4959882;28;20182;-40
2024/01/02 10:32:18;;;;;;;11.27;2.15;;;;;;;3.62;100.00;99478.00;4951530;28;20194;-40
2024/01/02 10:35:08;;;;;;;10.73;2.50;;;;;;;3.59;100.00;99475.44;4964370;28;20214;-40
2024/01/02 10:37:42;;;;;;;8.38;2.35;;;;;;;3.60;100.00;99479.81;4963260;28;20190;-40
2024/01/02 10:40:16;;;;;;;10.98;2.13;;;;;;;3.58;100.00;99479.84;4946881;28;20237;-40
2024/01/02 10:43:18;;;;;;;8.05;2.28;;;;;;;3.61;100.00;99487.72;4946292;28;20616;-40
2024/01/02 10:45:57;;;;;;;11.85;2.22;;;;;;;3.61;100.00;99463.03;4955157;28;20529;-38
2024/01/02 10:48:37;;;;;;;7.63;2.28;;;;;;;3.53;100.00;99455.31;4962825;28;20183;-41
2024/01/02 10:51:05;;;;;;;8.85;1.90;;;;;;;3.54;100.00;99449.09;4961261;28;20181;-43
2024/01/02 10:53:57;;;;;;;7.53;2.30;;;;;;;3.56;100.00;99449.91;4958911;28;20723;-42
2024/01/02 10:56:50;;;;;;;11.13;2.30;;;;;;;3.57;100.00;99454.31;4962264;28;20598;-40
2024/01/02 10:59:52;;;;;;;10.35;2.30;;;;;;;3.57;100.00;99456.94;4960636;28;20584;-40
2024/01/02 11:02:17;;;;;;;4.95;2.10;;;;;;;3.60;100.00;99455.97;4959547;28;20269;-43
2024/01/02 11:05:03;;;;;;;4.13;1.90;;;;;;;3.59;100.00;99465.72;4959151;28;20328;-41
2024/01/02 11:07:35;;;;;;;5.28;2.00;;;;;;;3.61;100.00;99466.53;4960456;28;20201;-41
2024/01/02 11:10:14;;;;;;;7.03;2.17;;;;;;;3.59;100.00;99459.56;4963560;28;20289;-41
2024/01/02 11:13:07;;;;;;;3.67;1.65;;;;;;;3.56;100.00;99457.84;4982750;23;20229;-44
2024/01/02 11:15:37;;;;;;;2.92;1.45;;;;;;;3.55;100.00;99442.03;4938730;28;20215;-47
2024/01/02 11:18:05;;;;;;;8.13;2.13;;;;;;;3.53;100.00;99442.06;4938313;29;20242;-46
2024/01/02 11:20:40;;;;;;;3.80;1.73;;;;;;;3.55;100.00;99444.69;4943032;29;20199;-46
2024/01/02 11:23:13;;;;;;;7.70;1.85;;;;;;;3.54;100.00;99440.28;4937632;28;20632;-48
2024/01/02 11:26:04;;;;;;;3.92;1.58;;;;;;;3.56;100.00;99426.06;4934911;29;20199;-46
2024/01/02 11:28:30;;;;;;;4.10;1.50;;;;;;;3.51;100.00;99414.78;4925990;29;20287;-46